Portada
METAR-TAF:

METAR-TAF

Aeropuertos :

Sparta Community Airport (Hunter Field)

Sparta, Illinois, Estados Unidos

latitud: 38-08-56N, longitud: 089-41-55W, altitud: 164 m

Observación

El informe se hizo hace 37 minutos, a las 14:55 UTC
Viento 5 kt del sur
Temperatura 28°C
Humedad 58%
Presión 1027 hPa
Visibilidad: 16.1 km
Cielo despejado

METAR: KSAR 201455Z AUTO 19005KT 10SM CLR 28/19 A3032 RMK AO2 T02780190

Hora: 10:32 (15:32 UTC)


TAF: falta

Observaciones y pronósticos meteorológicos de más de 4000 aeropuertos (mensajes METAR y TAF).

Los puntos amarillos y rojos representan las estaciones disponibles.

Ponga el ratón en el punto deseado para ver el nombre de la estación.

Haga clic para ver las observaciones y los pronósticos meteorológicos.

Para cambiar el mapa : haga clic en los botones verdes con una cruz de color negro para hacer un zoom, en el botón verde con un guión para alejar o en las flechas verdes para mapas adyacentes.


METAR-TAF: